createdAt,value
2019-04-20T00:02:25.399Z,5.72
2019-04-20T00:04:55.005Z,5.80
2019-04-20T00:07:29.174Z,6.25
2019-04-20T00:10:02.594Z,5.85
2019-04-20T00:12:36.744Z,5.20
2019-04-20T00:14:55.056Z,5.62
2019-04-20T00:17:25.017Z,5.75
2019-04-20T00:19:57.270Z,5.75
2019-04-20T00:22:36.742Z,5.85
2019-04-20T00:25:12.628Z,5.95
2019-04-20T00:27:59.555Z,5.42
2019-04-20T00:30:36.676Z,5.53
2019-04-20T00:32:53.352Z,5.10
2019-04-20T00:35:10.581Z,5.97
2019-04-20T00:37:40.196Z,5.67
2019-04-20T00:40:09.903Z,5.10
2019-04-20T00:42:45.254Z,5.45
2019-04-20T00:45:16.226Z,5.28
2019-04-20T00:47:47.738Z,7.33
2019-04-20T00:50:28.217Z,5.97
2019-04-20T00:52:55.261Z,4.47
2019-04-20T00:55:12.861Z,5.58
2019-04-20T00:57:49.578Z,5.25
2019-04-20T01:00:32.787Z,5.70
2019-04-20T01:02:55.577Z,5.28
2019-04-20T01:05:27.581Z,5.67
2019-04-20T01:07:52.100Z,5.37
2019-04-20T01:10:21.684Z,4.80
2019-04-20T01:12:52.003Z,5.00
2019-04-20T01:15:28.998Z,4.62
2019-04-20T01:17:51.258Z,5.25
2019-04-20T01:20:22.678Z,4.97
2019-04-20T01:22:57.227Z,5.15
2019-04-20T01:25:28.347Z,4.83
2019-04-20T01:28:10.267Z,4.90
2019-04-20T01:30:30.269Z,5.55
2019-04-20T01:33:03.502Z,6.00
2019-04-20T01:35:42.087Z,4.67
2019-04-20T01:40:25.248Z,5.25
2019-04-20T01:42:55.233Z,4.83
2019-04-20T01:45:30.747Z,4.30
2019-04-20T01:47:57.844Z,5.03
2019-04-20T01:50:28.386Z,5.03
2019-04-20T01:53:08.983Z,5.17
2019-04-20T01:55:56.110Z,4.83
2019-04-20T01:58:33.741Z,4.55
2019-04-20T02:00:45.961Z,5.35
2019-04-20T02:03:38.405Z,6.05
2019-04-20T02:06:16.752Z,5.08
2019-04-20T02:08:42.207Z,5.30
2019-04-20T02:11:18.647Z,5.72
2019-04-20T02:13:48.013Z,4.92
2019-04-20T02:16:22.992Z,4.90
2019-04-20T02:19:03.043Z,4.92
2019-04-20T02:21:30.024Z,5.55
2019-04-20T02:23:49.893Z,5.60
2019-04-20T02:26:14.308Z,4.75
2019-04-20T02:29:06.049Z,5.25
2019-04-20T02:34:40.118Z,5.80
2019-04-20T02:37:13.903Z,5.58
2019-04-20T02:39:47.167Z,3.98
2019-04-20T02:42:22.629Z,5.10
2019-04-20T02:49:59.856Z,5.55
2019-04-20T02:52:22.624Z,5.75
2019-04-20T02:54:46.823Z,5.37
2019-04-20T02:57:20.506Z,5.33
2019-04-20T02:59:58.915Z,5.50
2019-04-20T03:02:04.135Z,5.47
2019-04-20T03:04:28.324Z,5.53
2019-04-20T03:07:05.248Z,5.80
2019-04-20T03:09:39.914Z,6.08
2019-04-20T03:12:08.232Z,5.65
2019-04-20T03:14:35.214Z,5.72
2019-04-20T03:17:13.881Z,4.95
2019-04-20T03:19:33.981Z,5.92
2019-04-20T03:22:18.881Z,5.70
2019-04-20T03:24:46.902Z,6.03
2019-04-20T03:27:08.261Z,5.62
2019-04-20T03:32:40.312Z,6.35
2019-04-20T03:37:19.357Z,6.50
2019-04-20T03:39:40.555Z,6.17
2019-04-20T03:41:58.788Z,5.67
2019-04-20T03:44:30.905Z,6.50
2019-04-20T03:47:03.416Z,5.78
2019-04-20T03:49:54.870Z,5.53
2019-04-20T03:52:31.334Z,5.72
2019-04-20T03:55:10.304Z,6.22
2019-04-20T03:57:51.259Z,6.12
2019-04-20T04:00:36.222Z,5.47
2019-04-20T04:03:19.999Z,5.55
2019-04-20T04:05:42.284Z,6.20
2019-04-20T04:08:10.625Z,5.45
2019-04-20T04:10:47.151Z,5.25
2019-04-20T04:13:07.286Z,5.80
2019-04-20T04:15:42.708Z,5.17
2019-04-20T04:18:15.859Z,5.62
2019-04-20T04:20:47.861Z,5.70
2019-04-20T04:23:22.170Z,5.42
2019-04-20T04:25:59.372Z,6.92
2019-04-20T04:28:28.523Z,5.97
2019-04-20T04:31:09.518Z,5.70
2019-04-20T04:33:53.202Z,5.58
2019-04-20T04:36:07.110Z,5.70
2019-04-20T04:38:42.494Z,5.55
2019-04-20T04:41:13.665Z,5.60
2019-04-20T04:43:38.880Z,5.15
2019-04-20T04:45:49.664Z,5.17
2019-04-20T04:48:25.212Z,5.08
2019-04-20T04:50:56.102Z,5.40
2019-04-20T04:53:29.838Z,4.92
2019-04-20T04:55:57.525Z,5.92
2019-04-20T04:58:19.968Z,5.53
2019-04-20T05:00:49.309Z,5.60
2019-04-20T05:03:35.324Z,6.25
2019-04-20T05:06:14.763Z,5.67
2019-04-20T05:08:31.705Z,5.58
2019-04-20T05:10:56.186Z,5.25
2019-04-20T05:13:26.824Z,6.00
2019-04-20T05:16:11.038Z,5.35
2019-04-20T05:18:51.442Z,5.58
2019-04-20T05:21:15.307Z,5.47
2019-04-20T05:23:41.173Z,4.97
2019-04-20T05:26:25.593Z,5.47
2019-04-20T05:28:50.654Z,5.30
2019-04-20T05:31:11.574Z,5.62
2019-04-20T05:34:08.510Z,5.35
2019-04-20T05:36:29.646Z,5.90
2019-04-20T05:39:10.196Z,5.35
2019-04-20T05:41:41.762Z,6.00
2019-04-20T05:44:08.771Z,6.80
2019-04-20T05:46:42.310Z,6.25
2019-04-20T05:49:18.948Z,6.00
2019-04-20T05:51:43.319Z,5.58
2019-04-20T05:54:37.124Z,5.65
2019-04-20T05:56:45.718Z,5.60
2019-04-20T05:59:17.868Z,6.90
2019-04-20T06:01:52.798Z,5.50
2019-04-20T06:04:16.850Z,5.72
2019-04-20T06:06:49.749Z,6.45
2019-04-20T06:09:22.701Z,5.53
2019-04-20T06:12:04.359Z,5.17
2019-04-20T06:14:10.390Z,5.03
2019-04-20T06:17:10.604Z,5.45
2019-04-20T06:19:31.909Z,5.83
2019-04-20T06:22:11.274Z,5.50
2019-04-20T06:24:44.971Z,6.20
2019-04-20T06:27:12.766Z,7.37
2019-04-20T06:29:37.642Z,4.70
2019-04-20T06:32:11.016Z,5.53
2019-04-20T06:34:40.021Z,5.00
2019-04-20T06:37:05.832Z,5.00
2019-04-20T06:39:44.954Z,5.00
2019-04-20T06:44:58.815Z,4.87
2019-04-20T06:49:56.794Z,4.85
2019-04-20T06:55:02.796Z,4.62
2019-04-20T06:57:49.993Z,4.60
2019-04-20T07:00:14.137Z,5.00
2019-04-20T07:05:11.842Z,4.83
2019-04-20T07:07:43.190Z,4.62
2019-04-20T07:10:16.366Z,5.08
2019-04-20T07:12:36.911Z,4.03
2019-04-20T07:15:01.772Z,4.78
2019-04-20T07:17:49.024Z,4.45
2019-04-20T07:20:10.519Z,4.67
2019-04-20T07:22:46.475Z,5.05
2019-04-20T07:25:19.057Z,4.78
2019-04-20T07:27:49.012Z,5.15
2019-04-20T07:30:17.572Z,5.20
2019-04-20T07:33:03.707Z,5.45
2019-04-20T07:35:22.107Z,6.53
2019-04-20T07:40:21.703Z,4.42
2019-04-20T07:42:57.696Z,4.92
2019-04-20T07:48:02.785Z,4.05
2019-04-20T07:50:21.811Z,4.90
2019-04-20T07:52:46.225Z,4.80
2019-04-20T07:57:55.026Z,5.67
2019-04-20T08:00:44.945Z,5.10
2019-04-20T08:03:29.597Z,5.10
2019-04-20T08:05:44.350Z,5.95
2019-04-20T08:08:22.743Z,5.17
2019-04-20T08:10:52.032Z,4.55
2019-04-20T08:13:33.366Z,4.97
2019-04-20T08:15:57.096Z,5.08
2019-04-20T08:21:00.430Z,5.20
2019-04-20T08:23:36.020Z,4.92
2019-04-20T08:25:47.061Z,5.03
2019-04-20T08:28:16.666Z,4.95
2019-04-20T08:30:57.264Z,5.53
2019-04-20T08:33:30.922Z,4.87
2019-04-20T08:36:06.340Z,4.55
2019-04-20T08:39:01.370Z,5.40
2019-04-20T08:41:05.225Z,4.97
2019-04-20T08:43:46.824Z,6.30
2019-04-20T08:46:10.363Z,5.62
2019-04-20T08:48:43.595Z,5.45
2019-04-20T08:51:07.509Z,4.92
2019-04-20T08:53:36.330Z,5.60
2019-04-20T08:55:59.061Z,5.53
2019-04-20T08:58:18.112Z,5.60
2019-04-20T09:00:53.643Z,6.03
2019-04-20T09:03:25.386Z,5.70
2019-04-20T09:05:59.527Z,5.62
2019-04-20T09:08:26.016Z,4.90
2019-04-20T09:11:12.707Z,6.40
2019-04-20T09:13:31.593Z,5.50
2019-04-20T09:15:51.393Z,5.72
2019-04-20T09:18:40.263Z,6.45
2019-04-20T09:21:13.733Z,5.15
2019-04-20T09:23:45.591Z,5.47
2019-04-20T09:26:20.499Z,5.10
2019-04-20T09:28:47.974Z,5.97
2019-04-20T09:31:21.303Z,5.80
2019-04-20T09:34:15.805Z,5.97
2019-04-20T09:36:49.950Z,5.87
2019-04-20T09:39:27.137Z,5.85
2019-04-20T09:42:01.735Z,6.10
2019-04-20T09:44:37.585Z,6.55
2019-04-20T09:47:03.248Z,6.00
2019-04-20T09:49:44.525Z,5.72
2019-04-20T09:52:16.937Z,6.70
2019-04-20T09:54:52.843Z,6.17
2019-04-20T09:57:25.456Z,6.03
2019-04-20T09:59:55.181Z,6.15
2019-04-20T10:02:13.718Z,6.15
2019-04-20T10:04:37.580Z,5.83
2019-04-20T10:07:12.862Z,5.58
2019-04-20T10:09:42.675Z,4.33
2019-04-20T10:12:07.964Z,6.00
2019-04-20T10:14:36.828Z,6.28
2019-04-20T10:17:05.775Z,6.45
2019-04-20T10:19:37.382Z,6.15
2019-04-20T10:22:04.948Z,6.87
2019-04-20T10:24:36.884Z,6.90
2019-04-20T10:27:04.123Z,6.83
2019-04-20T10:29:35.790Z,5.78
2019-04-20T10:32:07.780Z,6.80
2019-04-20T10:34:35.245Z,6.85
2019-04-20T10:37:06.306Z,6.67
2019-04-20T10:39:36.655Z,6.92
2019-04-20T10:42:06.019Z,8.63
2019-04-20T10:44:34.963Z,6.42
2019-04-20T10:47:07.105Z,7.10
2019-04-20T10:49:37.368Z,6.50
2019-04-20T10:52:07.473Z,6.67
2019-04-20T10:54:36.543Z,7.12
2019-04-20T10:57:05.768Z,6.80
2019-04-20T10:59:34.632Z,7.28
2019-04-20T11:02:03.613Z,6.42
2019-04-20T11:04:32.757Z,6.60
2019-04-20T11:07:02.741Z,6.67
2019-04-20T11:09:32.474Z,6.78
2019-04-20T11:12:02.207Z,6.25
2019-04-20T11:14:34.550Z,6.42
2019-04-20T11:17:02.565Z,6.20
2019-04-20T11:19:31.639Z,6.47
2019-04-20T11:22:00.496Z,6.25
2019-04-20T11:24:30.199Z,6.85
2019-04-20T11:27:00.454Z,6.22
2019-04-20T11:29:29.280Z,6.20
2019-04-20T11:31:59.366Z,6.45
2019-04-20T11:34:33.369Z,5.80
2019-04-20T11:36:59.221Z,6.65
2019-04-20T11:39:29.235Z,5.90
2019-04-20T11:41:59.767Z,6.08
2019-04-20T11:44:31.453Z,5.85
2019-04-20T11:46:58.950Z,4.85
2019-04-20T11:49:27.837Z,5.78
2019-04-20T11:51:57.333Z,6.05
2019-04-20T11:54:26.347Z,6.65
2019-04-20T11:56:55.496Z,5.97
2019-04-20T11:59:25.385Z,5.90
2019-04-20T12:02:04.623Z,5.92
2019-04-20T12:04:42.044Z,5.15
2019-04-20T12:07:04.797Z,5.53
2019-04-20T12:09:33.588Z,5.08
2019-04-20T12:12:17.867Z,5.10
2019-04-20T12:14:32.740Z,4.58
2019-04-20T12:17:01.799Z,5.03
2019-04-20T12:19:31.164Z,4.92
2019-04-20T12:22:00.148Z,5.08
2019-04-20T12:24:29.200Z,5.20
2019-04-20T12:26:58.715Z,5.53
2019-04-20T12:29:27.942Z,4.70
2019-04-20T12:32:00.046Z,5.67
2019-04-20T12:34:28.578Z,5.85
2019-04-20T12:36:58.489Z,5.25
2019-04-20T12:39:27.436Z,5.83
2019-04-20T12:41:58.780Z,6.22
2019-04-20T12:44:27.871Z,6.45
2019-04-20T12:46:57.180Z,5.25
2019-04-20T12:49:43.393Z,6.03
2019-04-20T12:52:12.444Z,5.62
2019-04-20T12:54:44.233Z,5.80
2019-04-20T12:57:11.870Z,6.22
2019-04-20T12:59:42.736Z,5.70
2019-04-20T13:02:11.418Z,5.58
2019-04-20T13:04:41.555Z,5.08
2019-04-20T13:07:12.030Z,5.08
2019-04-20T13:09:50.623Z,5.50
2019-04-20T13:12:30.198Z,5.95
2019-04-20T13:15:08.636Z,4.87
2019-04-20T13:17:37.996Z,5.47
2019-04-20T13:20:08.224Z,5.12
2019-04-20T13:22:37.089Z,5.28
2019-04-20T13:25:07.301Z,4.83
2019-04-20T13:27:36.657Z,4.90
2019-04-20T13:30:07.413Z,5.20
2019-04-20T13:32:36.204Z,5.12
2019-04-20T13:35:07.991Z,4.80
2019-04-20T13:37:38.787Z,5.03
2019-04-20T13:40:07.174Z,5.65
2019-04-20T13:42:36.469Z,4.72
2019-04-20T13:45:08.666Z,4.97
2019-04-20T13:47:38.952Z,5.08
2019-04-20T13:50:09.342Z,4.85
2019-04-20T13:52:38.517Z,4.28
2019-04-20T13:55:08.700Z,5.05
2019-04-20T13:57:42.095Z,4.97
2019-04-20T14:00:29.270Z,5.12
2019-04-20T14:03:00.662Z,5.35
2019-04-20T14:05:35.066Z,3.70
2019-04-20T14:08:07.465Z,4.33
2019-04-20T14:10:37.668Z,4.40
2019-04-20T14:13:12.159Z,4.60
2019-04-20T14:15:37.402Z,4.12
2019-04-20T14:18:06.939Z,4.50
2019-04-20T14:20:36.222Z,4.25
2019-04-20T14:23:05.316Z,4.00
2019-04-20T14:25:34.196Z,4.12
2019-04-20T14:28:02.924Z,4.00
2019-04-20T14:30:33.007Z,4.22
2019-04-20T14:33:03.034Z,3.67
2019-04-20T14:35:32.657Z,3.80
2019-04-20T14:38:01.713Z,3.45
2019-04-20T14:40:30.623Z,3.60
2019-04-20T14:43:00.453Z,3.40
2019-04-20T14:45:29.882Z,3.58
2019-04-20T14:47:59.548Z,3.35
2019-04-20T14:50:29.838Z,3.40
2019-04-20T14:52:59.767Z,3.70
2019-04-20T14:55:29.717Z,3.30
2019-04-20T14:58:01.491Z,3.42
2019-04-20T15:00:53.011Z,3.80
2019-04-20T15:03:30.619Z,3.45
2019-04-20T15:06:02.034Z,3.35
2019-04-20T15:08:32.469Z,3.45
2019-04-20T15:11:01.264Z,3.90
2019-04-20T15:13:30.798Z,3.12
2019-04-20T15:15:59.709Z,3.52
2019-04-20T15:18:39.774Z,3.35
2019-04-20T15:21:13.447Z,3.08
2019-04-20T15:23:43.625Z,3.12
2019-04-20T15:26:13.843Z,3.45
2019-04-20T15:28:42.554Z,3.15
2019-04-20T15:31:12.144Z,3.72
2019-04-20T15:33:41.120Z,3.85
2019-04-20T15:36:10.571Z,3.25
2019-04-20T15:38:42.937Z,3.22
2019-04-20T15:41:14.970Z,4.30
2019-04-20T15:43:43.561Z,5.08
2019-04-20T15:46:13.087Z,4.92
2019-04-20T15:48:41.901Z,3.40
2019-04-20T15:51:11.945Z,3.98
2019-04-20T15:53:41.744Z,3.62
2019-04-20T15:56:11.772Z,3.52
2019-04-20T15:58:44.132Z,3.02
2019-04-20T16:01:12.215Z,3.25
2019-04-20T16:03:45.726Z,7.40
2019-04-20T16:06:14.673Z,3.83
2019-04-20T16:08:45.999Z,4.35
2019-04-20T16:11:15.288Z,3.52
2019-04-20T16:13:49.424Z,3.33
2019-04-20T16:16:16.064Z,3.37
2019-04-20T16:18:45.324Z,3.37
2019-04-20T16:21:20.943Z,3.40
2019-04-20T16:23:56.933Z,3.40
2019-04-20T16:26:37.695Z,3.20
2019-04-20T16:29:08.113Z,3.65
2019-04-20T16:31:38.292Z,7.58
2019-04-20T16:34:07.617Z,2.95
2019-04-20T16:36:36.793Z,4.60
2019-04-20T16:39:09.312Z,17.17
2019-04-20T16:41:38.291Z,16.05
2019-04-20T16:44:07.228Z,5.30
2019-04-20T16:46:36.355Z,4.30
2019-04-20T16:49:05.313Z,4.20
2019-04-20T16:51:34.739Z,3.75
2019-04-20T16:54:03.917Z,3.55
2019-04-20T16:56:33.004Z,4.85
2019-04-20T16:59:09.309Z,3.00
2019-04-20T17:01:32.397Z,3.83
2019-04-20T17:04:07.170Z,4.62
2019-04-20T17:06:32.456Z,4.65
2019-04-20T17:09:01.254Z,3.92
2019-04-20T17:11:30.161Z,3.77
2019-04-20T17:14:01.592Z,4.75
2019-04-20T17:16:29.408Z,2.65
2019-04-20T17:18:59.516Z,3.90
2019-04-20T17:21:30.618Z,5.78
2019-04-20T17:23:59.460Z,3.92
2019-04-20T17:26:30.019Z,5.90
2019-04-20T17:29:13.631Z,6.97
2019-04-20T17:31:45.157Z,4.55
2019-04-20T17:34:29.842Z,2.87
2019-04-20T17:36:46.530Z,2.95
2019-04-20T17:39:26.202Z,2.83
2019-04-20T17:42:02.940Z,3.08
2019-04-20T17:44:31.491Z,2.62
2019-04-20T17:46:59.082Z,2.90
2019-04-20T17:49:31.467Z,3.25
2019-04-20T17:52:12.135Z,3.10
2019-04-20T17:54:23.475Z,4.25
2019-04-20T17:56:52.457Z,7.75
2019-04-20T17:59:22.206Z,2.98
2019-04-20T18:02:06.665Z,6.00
2019-04-20T18:04:57.384Z,4.80
2019-04-20T18:07:18.231Z,5.75
2019-04-20T18:09:54.756Z,4.85
2019-04-20T18:12:04.566Z,6.17
2019-04-20T18:14:46.402Z,5.87
2019-04-20T18:17:32.023Z,4.50
2019-04-20T18:19:54.545Z,5.42
2019-04-20T18:22:23.575Z,4.25
2019-04-20T18:25:16.296Z,3.72
2019-04-20T18:27:44.113Z,4.10
2019-04-20T18:30:10.788Z,5.53
2019-04-20T18:32:29.599Z,3.70
2019-04-20T18:35:06.282Z,4.97
2019-04-20T18:37:34.372Z,5.37
2019-04-20T18:40:10.715Z,5.00
2019-04-20T18:42:40.332Z,5.92
2019-04-20T18:45:21.873Z,4.65
2019-04-20T18:47:53.913Z,4.00
2019-04-20T18:50:17.292Z,4.70
2019-04-20T18:52:40.057Z,4.87
2019-04-20T18:55:16.270Z,4.45
2019-04-20T18:57:39.806Z,5.58
2019-04-20T19:00:18.104Z,4.67
2019-04-20T19:02:44.552Z,4.55
2019-04-20T19:05:11.503Z,4.05
2019-04-20T19:07:51.639Z,3.60
2019-04-20T19:10:21.334Z,4.40
2019-04-20T19:12:50.340Z,3.70
2019-04-20T19:15:46.809Z,3.77
2019-04-20T19:18:08.170Z,4.10
2019-04-20T19:20:29.021Z,3.60
2019-04-20T19:22:58.131Z,3.60
2019-04-20T19:25:31.580Z,3.70
2019-04-20T19:28:00.104Z,3.62
2019-04-20T19:30:37.665Z,4.08
2019-04-20T19:33:14.571Z,4.42
2019-04-20T19:35:41.764Z,3.98
2019-04-20T19:38:09.405Z,4.25
2019-04-20T19:40:42.967Z,4.28
2019-04-20T19:43:14.662Z,5.30
2019-04-20T19:46:01.153Z,4.30
2019-04-20T19:48:20.464Z,4.78
2019-04-20T19:50:59.026Z,4.20
2019-04-20T19:55:47.767Z,3.70
2019-04-20T19:58:16.184Z,3.83
2019-04-20T20:00:46.837Z,3.65
2019-04-20T20:03:15.496Z,4.05
2019-04-20T20:05:46.975Z,3.60
2019-04-20T20:08:19.884Z,3.80
2019-04-20T20:10:45.884Z,3.90
2019-04-20T20:13:14.974Z,3.62
2019-04-20T20:15:45.522Z,4.03
2019-04-20T20:18:30.656Z,3.67
2019-04-20T20:21:00.629Z,4.62
2019-04-20T20:23:16.206Z,4.15
2019-04-20T20:25:48.151Z,4.15
2019-04-20T20:28:28.713Z,3.65
2019-04-20T20:30:56.882Z,3.62
2019-04-20T20:33:35.117Z,3.87
2019-04-20T20:35:58.651Z,3.92
2019-04-20T20:38:25.580Z,4.25
2019-04-20T20:41:01.555Z,3.62
2019-04-20T20:43:31.810Z,3.72
2019-04-20T20:46:01.128Z,4.72
2019-04-20T20:48:35.661Z,4.53
2019-04-20T20:51:12.077Z,3.72
2019-04-20T20:53:37.579Z,4.42
2019-04-20T20:56:01.818Z,4.15
2019-04-20T20:58:40.644Z,4.17
2019-04-20T21:00:58.543Z,3.92
2019-04-20T21:03:28.021Z,3.92
2019-04-20T21:05:52.000Z,3.90
2019-04-20T21:08:26.126Z,4.22
2019-04-20T21:10:54.914Z,4.80
2019-04-20T21:13:28.379Z,4.37
2019-04-20T21:16:02.521Z,4.60
2019-04-20T21:18:42.441Z,4.12
2019-04-20T21:21:11.762Z,4.17
2019-04-20T21:23:36.817Z,4.05
2019-04-20T21:26:12.859Z,4.62
2019-04-20T21:28:39.833Z,4.78
2019-04-20T21:31:15.966Z,5.20
2019-04-20T21:36:13.525Z,5.62
2019-04-20T21:38:42.474Z,4.97
2019-04-20T21:41:15.035Z,5.58
2019-04-20T21:43:44.412Z,5.28
2019-04-20T21:46:13.707Z,5.55
2019-04-20T21:48:58.585Z,5.28
2019-04-20T21:51:27.469Z,5.25
2019-04-20T21:53:42.524Z,5.37
2019-04-20T21:56:12.234Z,4.92
2019-04-20T21:58:48.297Z,5.05
2019-04-20T22:01:22.283Z,5.65
2019-04-20T22:03:44.764Z,5.67
2019-04-20T22:06:14.120Z,5.45
2019-04-20T22:08:49.316Z,5.40
2019-04-20T22:11:13.644Z,5.60
2019-04-20T22:13:44.601Z,6.17
2019-04-20T22:16:14.755Z,5.28
2019-04-20T22:18:51.804Z,5.47
2019-04-20T22:21:22.491Z,5.08
2019-04-20T22:23:59.942Z,6.33
2019-04-20T22:26:26.823Z,5.45
2019-04-20T22:28:45.029Z,6.03
2019-04-20T22:31:14.027Z,5.87
2019-04-20T22:33:45.031Z,5.92
2019-04-20T22:36:14.552Z,5.70
2019-04-20T22:39:05.102Z,6.28
2019-04-20T22:41:34.442Z,6.70
2019-04-20T22:44:09.289Z,6.90
2019-04-20T22:46:37.118Z,6.95
2019-04-20T22:49:20.482Z,6.67
2019-04-20T22:51:44.780Z,6.10
2019-04-20T22:54:23.288Z,6.70
2019-04-20T22:56:51.184Z,7.08
2019-04-20T22:59:13.888Z,6.55
2019-04-20T23:01:45.793Z,6.60
2019-04-20T23:04:08.752Z,7.60
2019-04-20T23:06:43.851Z,5.95
2019-04-20T23:09:12.626Z,6.05
2019-04-20T23:11:40.402Z,5.95
2019-04-20T23:14:10.807Z,5.72
2019-04-20T23:16:44.068Z,6.40
2019-04-20T23:19:10.271Z,6.20
2019-04-20T23:21:46.304Z,6.37
2019-04-20T23:24:13.587Z,5.85
2019-04-20T23:26:45.580Z,5.92
2019-04-20T23:29:13.402Z,6.12
2019-04-20T23:31:50.569Z,5.87
2019-04-20T23:34:20.207Z,5.28
2019-04-20T23:36:47.085Z,5.00
2019-04-20T23:39:14.839Z,6.65
2019-04-20T23:41:55.647Z,6.20
2019-04-20T23:44:23.040Z,5.92
2019-04-20T23:47:09.741Z,6.42
2019-04-20T23:49:53.350Z,5.75
2019-04-20T23:54:37.268Z,4.67
2019-04-20T23:57:05.821Z,5.78
2019-04-20T23:59:40.824Z,5.83
